createdAt,value
2023-01-13T00:04:48.128Z,99730.84
2023-01-13T00:09:52.177Z,99729.19
2023-01-13T00:14:53.971Z,99733.84
2023-01-13T00:19:56.587Z,99717.41
2023-01-13T00:25:01.569Z,99719.78
2023-01-13T00:30:04.141Z,99720.19
2023-01-13T00:35:06.407Z,99721.25
2023-01-13T00:40:08.995Z,99738.63
2023-01-13T00:45:10.977Z,99738.28
2023-01-13T00:50:12.931Z,99742.38
2023-01-13T00:55:14.645Z,99743.19
2023-01-13T01:00:16.597Z,99740.81
2023-01-13T01:05:18.235Z,99735.00
2023-01-13T01:10:19.940Z,99756.44
2023-01-13T01:15:21.597Z,99782.97
2023-01-13T01:20:23.273Z,99785.47
2023-01-13T01:25:24.949Z,99800.44
2023-01-13T01:30:26.620Z,99801.97
2023-01-13T01:35:28.278Z,99819.31
2023-01-13T01:40:29.938Z,99808.38
2023-01-13T01:45:31.760Z,99791.41
2023-01-13T01:50:34.676Z,99779.50
2023-01-13T01:55:38.078Z,99739.28
2023-01-13T02:00:39.813Z,99764.03
2023-01-13T02:05:41.736Z,99770.09
2023-01-13T02:10:48.251Z,99772.47
2023-01-13T02:15:59.057Z,99759.16
2023-01-13T02:21:10.019Z,99780.16
2023-01-13T02:26:55.501Z,99779.06
2023-01-13T02:32:08.832Z,99777.25
2023-01-13T02:37:43.658Z,99760.81
2023-01-13T02:43:23.129Z,99747.53
2023-01-13T02:48:27.631Z,99724.56
2023-01-13T02:53:38.837Z,99707.56
2023-01-13T02:58:43.515Z,99708.03
2023-01-13T03:03:45.088Z,99691.84
2023-01-13T03:08:54.821Z,99674.47
2023-01-13T03:13:59.267Z,99668.03
2023-01-13T03:19:15.750Z,99648.50
2023-01-13T03:24:25.127Z,99631.09
2023-01-13T03:29:39.069Z,99621.91
2023-01-13T03:34:50.414Z,99638.44
2023-01-13T03:39:57.556Z,99619.88
2023-01-13T03:45:02.726Z,99622.84
2023-01-13T03:50:05.402Z,99601.88
2023-01-13T03:55:11.855Z,99588.53
2023-01-13T04:00:15.118Z,99588.88
2023-01-13T04:05:17.673Z,99584.47
2023-01-13T04:10:25.474Z,99576.84
2023-01-13T04:15:31.097Z,99570.28
2023-01-13T04:20:32.778Z,99573.84
2023-01-13T04:25:35.512Z,99583.22
2023-01-13T04:30:38.055Z,99576.94
2023-01-13T04:35:39.823Z,99558.00
2023-01-13T04:40:41.969Z,99570.88
2023-01-13T04:45:44.052Z,99559.34
2023-01-13T04:50:45.587Z,99577.66
2023-01-13T04:55:47.926Z,99565.06
2023-01-13T05:00:51.021Z,99571.34
2023-01-13T05:05:52.602Z,99552.44
2023-01-13T05:10:54.166Z,99569.72
2023-01-13T05:16:14.057Z,99575.66
2023-01-13T05:21:34.363Z,99558.16
2023-01-13T05:26:35.887Z,99573.41
2023-01-13T05:31:37.550Z,99567.63
2023-01-13T05:36:39.121Z,99577.72
2023-01-13T05:41:59.404Z,99584.53
2023-01-13T05:47:01.116Z,99583.69
2023-01-13T05:52:03.454Z,99585.63
2023-01-13T05:57:05.012Z,99585.84
2023-01-13T06:02:06.611Z,99574.06
2023-01-13T06:07:08.255Z,99564.78
2023-01-13T06:12:13.861Z,99560.88
2023-01-13T06:17:16.298Z,99574.22
2023-01-13T06:22:23.322Z,99560.06
2023-01-13T06:27:25.103Z,99571.81
2023-01-13T06:32:35.180Z,99575.03
2023-01-13T06:37:37.794Z,99596.38
2023-01-13T06:42:58.324Z,99613.78
2023-01-13T06:48:00.779Z,99596.66
2023-01-13T06:53:04.153Z,99605.69
2023-01-13T06:58:06.190Z,99607.84
2023-01-13T07:03:16.527Z,99608.56
2023-01-13T07:08:18.105Z,99617.50
2023-01-13T07:13:38.461Z,99626.53
2023-01-13T07:18:40.073Z,99627.47
2023-01-13T07:23:41.895Z,99631.38
2023-01-13T07:28:45.868Z,99665.19
2023-01-13T07:33:47.929Z,99729.03
2023-01-13T07:38:54.693Z,99758.47
2023-01-13T07:43:56.419Z,99755.03
2023-01-13T07:48:58.114Z,99777.03
2023-01-13T07:53:59.859Z,99838.88
2023-01-13T07:59:02.175Z,99847.66
2023-01-13T08:04:03.763Z,99892.53
2023-01-13T08:09:05.372Z,99897.88
2023-01-13T08:14:06.959Z,99906.72
2023-01-13T08:19:08.661Z,99919.72
2023-01-13T08:24:15.866Z,99926.81
2023-01-13T08:29:17.586Z,99925.50
2023-01-13T08:34:19.230Z,99952.78
2023-01-13T08:39:21.002Z,99957.81
2023-01-13T08:44:24.637Z,99952.41
2023-01-13T08:49:31.947Z,99965.22
2023-01-13T08:54:34.580Z,99960.34
2023-01-13T08:59:36.626Z,99963.88
2023-01-13T09:04:39.310Z,99963.44
2023-01-13T09:16:41.711Z,99975.13
2023-01-13T09:21:46.181Z,99989.22
2023-01-13T09:26:50.379Z,99989.59
2023-01-13T09:31:51.924Z,99998.63
2023-01-13T09:36:54.075Z,99996.28
2023-01-13T09:42:23.608Z,100001.44
2023-01-13T09:47:45.592Z,100026.19
2023-01-13T09:52:47.240Z,100023.47
2023-01-13T09:57:48.863Z,100024.97
2023-01-13T10:03:18.188Z,100038.00
2023-01-13T10:08:25.953Z,100033.88
2023-01-13T10:13:31.535Z,100048.16
2023-01-13T10:19:01.356Z,100067.75
2023-01-13T10:24:07.383Z,100078.44
2023-01-13T10:29:20.676Z,100088.47
2023-01-13T10:34:24.663Z,100081.50
2023-01-13T10:39:26.322Z,100092.56
2023-01-13T10:44:28.089Z,100087.88
2023-01-13T10:49:37.220Z,100093.38
2023-01-13T10:54:52.007Z,100094.88
2023-01-13T10:59:54.819Z,100105.66
2023-01-13T11:04:56.426Z,100133.16
2023-01-13T11:10:27.257Z,100149.75
2023-01-13T11:15:40.736Z,100163.13
2023-01-13T11:20:46.600Z,100184.19
2023-01-13T11:25:54.677Z,100196.81
2023-01-13T11:31:46.320Z,100204.09
2023-01-13T11:36:52.174Z,100189.97
2023-01-13T11:42:19.074Z,100232.16
2023-01-13T11:47:22.860Z,100294.53
2023-01-13T11:52:43.213Z,100354.41
2023-01-13T11:57:54.945Z,100451.41
2023-01-13T12:03:24.534Z,100520.22
2023-01-13T12:09:12.073Z,100404.38
2023-01-13T12:14:42.918Z,100239.97
2023-01-13T12:19:50.126Z,100161.00
2023-01-13T12:25:20.818Z,100111.53
2023-01-13T12:30:29.502Z,100097.94
2023-01-13T12:35:40.263Z,100080.91
2023-01-13T12:41:03.573Z,100081.19
2023-01-13T12:46:23.447Z,100080.41
2023-01-13T12:51:28.010Z,100116.81
2023-01-13T12:56:39.506Z,100190.78
2023-01-13T13:01:41.304Z,100234.25
2023-01-13T13:06:51.751Z,100342.34
2023-01-13T13:11:59.284Z,100548.00
2023-01-13T13:17:01.227Z,100588.06
2023-01-13T13:22:18.703Z,100610.41
2023-01-13T13:27:28.755Z,100598.69
2023-01-13T13:32:30.259Z,100574.31
2023-01-13T13:38:01.397Z,100529.63
2023-01-13T13:43:32.444Z,100486.63
2023-01-13T13:48:34.491Z,100448.63
2023-01-13T13:53:42.271Z,100415.66
2023-01-13T13:58:43.949Z,100402.00
2023-01-13T14:03:45.573Z,100369.66
2023-01-13T14:08:50.114Z,100401.06
2023-01-13T14:14:21.180Z,100463.56
2023-01-13T14:19:30.896Z,100518.09
2023-01-13T14:24:33.083Z,100520.22
2023-01-13T14:29:34.811Z,100483.06
2023-01-13T14:34:37.716Z,100455.16
2023-01-13T14:39:41.582Z,100386.34
2023-01-13T14:44:48.660Z,100358.66
2023-01-13T14:50:02.172Z,100343.53
2023-01-13T14:55:10.218Z,100327.59
2023-01-13T15:00:11.900Z,100327.41
2023-01-13T15:05:24.568Z,100330.09
2023-01-13T15:10:38.381Z,100322.56
2023-01-13T15:15:40.022Z,100326.34
2023-01-13T15:20:46.174Z,100317.28
2023-01-13T15:25:59.526Z,100321.59
2023-01-13T15:31:04.265Z,100287.59
2023-01-13T15:36:16.565Z,100268.78
2023-01-13T15:41:38.438Z,100280.00
2023-01-13T15:46:40.114Z,100274.06
2023-01-13T15:51:41.771Z,100275.91
2023-01-13T15:56:43.464Z,100282.34
2023-01-13T16:01:46.132Z,100282.50
2023-01-13T16:06:47.956Z,100290.19
2023-01-13T16:11:49.493Z,100298.91
2023-01-13T16:16:52.171Z,100318.72
2023-01-13T16:21:53.805Z,100322.72
2023-01-13T16:26:55.347Z,100338.97
2023-01-13T16:31:56.916Z,100361.50
2023-01-13T16:36:58.616Z,100377.19
2023-01-13T16:42:00.408Z,100397.81
2023-01-13T16:47:02.443Z,100451.97
2023-01-13T16:52:04.364Z,100509.06
2023-01-13T16:57:07.681Z,100556.28
2023-01-13T17:02:14.862Z,100584.66
2023-01-13T17:07:17.087Z,100636.25
2023-01-13T17:12:18.694Z,100669.41
2023-01-13T17:17:26.066Z,100701.81
2023-01-13T17:22:27.638Z,100707.59
2023-01-13T17:27:29.236Z,100689.88
2023-01-13T17:32:30.903Z,100701.66
2023-01-13T17:37:32.461Z,100681.38
2023-01-13T17:42:34.048Z,100676.09
2023-01-13T17:47:35.745Z,100664.47
2023-01-13T17:52:37.333Z,100680.75
2023-01-13T17:57:38.855Z,100686.13
2023-01-13T18:02:40.567Z,100698.81
2023-01-13T18:07:42.345Z,100721.13
2023-01-13T18:12:44.041Z,100735.28
2023-01-13T18:17:47.270Z,100764.69
2023-01-13T18:23:07.499Z,100758.88
2023-01-13T18:28:09.230Z,100758.03
2023-01-13T18:33:10.919Z,100769.94
2023-01-13T18:38:27.837Z,100797.44
2023-01-13T18:43:32.970Z,100783.81
2023-01-13T18:48:34.711Z,100806.34
2023-01-13T18:53:36.415Z,100795.53
2023-01-13T18:58:52.312Z,100807.91
2023-01-13T19:04:04.847Z,100834.06
2023-01-13T19:09:08.705Z,100859.13
2023-01-13T19:14:10.281Z,100856.81
2023-01-13T19:19:11.941Z,100877.16
2023-01-13T19:24:13.502Z,100879.41
2023-01-13T19:29:15.314Z,100866.44
2023-01-13T19:34:17.306Z,100832.50
2023-01-13T19:39:22.306Z,100792.28
2023-01-13T19:44:42.520Z,100746.78
2023-01-13T19:49:44.298Z,100703.13
2023-01-13T19:54:46.221Z,100665.94
2023-01-13T19:59:47.803Z,100648.38
2023-01-13T20:04:55.762Z,100655.41
2023-01-13T20:09:57.455Z,100663.31
2023-01-13T20:14:58.994Z,100672.56
2023-01-13T20:20:00.566Z,100692.16
2023-01-13T20:25:02.187Z,100709.84
2023-01-13T20:30:05.302Z,100738.59
2023-01-13T20:35:07.613Z,100780.25
2023-01-13T20:40:13.651Z,100815.63
2023-01-13T20:45:19.803Z,100859.53
2023-01-13T20:50:21.389Z,100863.00
2023-01-13T20:55:23.189Z,100889.06
2023-01-13T21:00:24.993Z,100906.06
2023-01-13T21:05:28.100Z,100921.84
2023-01-13T21:10:29.666Z,100930.00
2023-01-13T21:15:31.242Z,100942.63
2023-01-13T21:20:34.667Z,100938.56
2023-01-13T21:25:39.557Z,100922.88
2023-01-13T21:30:41.179Z,100890.34
2023-01-13T21:35:42.756Z,100875.63
2023-01-13T21:40:44.503Z,100868.78
2023-01-13T21:46:05.645Z,100852.84
2023-01-13T21:51:07.269Z,100835.78
2023-01-13T21:56:08.890Z,100843.75
2023-01-13T22:01:11.867Z,100861.94
2023-01-13T22:06:13.936Z,100862.44
2023-01-13T22:11:15.714Z,100867.00
2023-01-13T22:16:17.495Z,100828.06
2023-01-13T22:21:19.249Z,100794.72
2023-01-13T22:26:20.992Z,100783.53
2023-01-13T22:31:24.374Z,100780.06
2023-01-13T22:36:26.488Z,100769.94
2023-01-13T22:41:28.022Z,100743.88
2023-01-13T22:46:29.665Z,100738.81
2023-01-13T22:51:31.359Z,100743.09
2023-01-13T22:56:33.137Z,100745.81
2023-01-13T23:01:35.444Z,100741.78
2023-01-13T23:06:39.637Z,100744.34
2023-01-13T23:11:41.933Z,100736.22
2023-01-13T23:16:43.756Z,100738.47
2023-01-13T23:21:45.369Z,100742.91
2023-01-13T23:26:46.903Z,100743.75
2023-01-13T23:31:48.703Z,100739.00
2023-01-13T23:36:50.316Z,100743.19
2023-01-13T23:41:51.931Z,100730.13
2023-01-13T23:46:53.531Z,100744.91
2023-01-13T23:51:55.101Z,100737.91
2023-01-13T23:56:57.376Z,100750.41
